createdAt,value
2022-09-29T00:00:38.900Z,1.40
2022-09-29T00:03:07.374Z,1.67
2022-09-29T00:05:34.387Z,1.50
2022-09-29T00:08:02.090Z,1.57
2022-09-29T00:10:29.029Z,1.50
2022-09-29T00:12:55.836Z,1.47
2022-09-29T00:15:22.684Z,1.60
2022-09-29T00:18:12.140Z,1.73
2022-09-29T00:20:36.954Z,1.60
2022-09-29T00:23:04.695Z,1.43
2022-09-29T00:25:32.266Z,1.30
2022-09-29T00:27:59.016Z,1.27
2022-09-29T00:30:26.530Z,1.33
2022-09-29T00:32:53.242Z,1.20
2022-09-29T00:35:20.122Z,1.50
2022-09-29T00:37:47.707Z,1.30
2022-09-29T00:40:14.462Z,1.20
2022-09-29T00:42:41.369Z,1.30
2022-09-29T00:45:19.459Z,1.40
2022-09-29T00:48:10.115Z,1.37
2022-09-29T00:50:47.578Z,1.27
2022-09-29T00:53:21.239Z,1.30
2022-09-29T00:56:03.406Z,1.70
2022-09-29T00:58:50.460Z,1.63
2022-09-29T01:01:17.381Z,1.60
2022-09-29T01:03:47.075Z,1.60
2022-09-29T01:06:19.996Z,1.50
2022-09-29T01:09:08.862Z,1.50
2022-09-29T01:11:36.332Z,1.60
2022-09-29T01:14:06.701Z,1.67
2022-09-29T01:16:35.300Z,1.43
2022-09-29T01:19:07.611Z,1.57
2022-09-29T01:21:49.482Z,1.43
2022-09-29T01:24:46.982Z,1.40
2022-09-29T01:27:25.805Z,1.40
2022-09-29T01:30:12.486Z,1.40
2022-09-29T01:33:14.418Z,1.40
2022-09-29T01:36:03.420Z,1.53
2022-09-29T01:38:33.126Z,1.60
2022-09-29T01:41:10.712Z,1.67
2022-09-29T01:43:47.599Z,1.47
2022-09-29T01:46:38.572Z,1.50
2022-09-29T01:49:06.709Z,1.37
2022-09-29T01:51:44.120Z,1.60
2022-09-29T01:54:19.917Z,1.53
2022-09-29T01:56:57.793Z,1.60
2022-09-29T01:59:31.052Z,1.50
2022-09-29T02:02:03.355Z,1.60
2022-09-29T02:04:37.487Z,1.73
2022-09-29T02:07:11.021Z,1.73
2022-09-29T02:09:43.058Z,1.60
2022-09-29T02:12:13.808Z,1.77
2022-09-29T02:14:46.446Z,1.60
2022-09-29T02:17:20.191Z,1.70
2022-09-29T02:19:51.047Z,1.57
2022-09-29T02:22:19.342Z,1.70
2022-09-29T02:24:46.298Z,1.60
2022-09-29T02:27:13.131Z,1.30
2022-09-29T02:29:40.246Z,1.23
2022-09-29T02:32:10.235Z,1.80
2022-09-29T02:34:42.298Z,1.60
2022-09-29T02:37:48.734Z,2.20
2022-09-29T02:40:21.644Z,1.87
2022-09-29T02:43:02.283Z,1.70
2022-09-29T02:45:33.940Z,1.80
2022-09-29T02:48:15.562Z,1.97
2022-09-29T02:51:03.847Z,1.53
2022-09-29T02:53:58.075Z,2.10
2022-09-29T02:56:41.082Z,1.60
2022-09-29T02:59:14.291Z,1.90
2022-09-29T03:01:52.610Z,1.77
2022-09-29T03:04:21.078Z,1.80
2022-09-29T03:06:48.067Z,1.80
2022-09-29T03:09:15.113Z,1.70
2022-09-29T03:11:42.475Z,1.73
2022-09-29T03:14:09.450Z,2.00
2022-09-29T03:16:37.351Z,1.80
2022-09-29T03:19:07.940Z,1.80
2022-09-29T03:21:35.630Z,1.53
2022-09-29T03:24:02.713Z,2.27
2022-09-29T03:26:30.698Z,2.00
2022-09-29T03:28:57.533Z,1.90
2022-09-29T03:31:24.639Z,2.27
2022-09-29T03:33:52.171Z,2.10
2022-09-29T03:36:19.120Z,2.00
2022-09-29T03:38:47.300Z,2.40
2022-09-29T03:41:14.361Z,2.37
2022-09-29T03:43:41.699Z,2.37
2022-09-29T03:46:08.742Z,2.50
2022-09-29T03:48:35.824Z,2.30
2022-09-29T03:51:03.846Z,2.40
2022-09-29T03:53:31.163Z,2.43
2022-09-29T03:55:58.183Z,2.60
2022-09-29T03:58:25.343Z,2.30
2022-09-29T04:00:52.598Z,2.73
2022-09-29T04:03:20.812Z,2.43
2022-09-29T04:05:48.562Z,2.70
2022-09-29T04:08:16.317Z,2.43
2022-09-29T04:10:43.964Z,2.50
2022-09-29T04:13:10.711Z,2.60
2022-09-29T04:15:38.072Z,2.40
2022-09-29T04:18:06.115Z,2.47
2022-09-29T04:20:33.521Z,2.30
2022-09-29T04:23:01.486Z,2.43
2022-09-29T04:25:28.476Z,2.70
2022-09-29T04:27:55.229Z,2.27
2022-09-29T04:30:22.103Z,2.33
2022-09-29T04:32:49.234Z,2.50
2022-09-29T04:35:16.150Z,2.33
2022-09-29T04:37:42.958Z,2.60
2022-09-29T04:40:10.111Z,2.30
2022-09-29T04:42:36.934Z,2.30
2022-09-29T04:45:04.106Z,2.30
2022-09-29T04:47:31.177Z,2.50
2022-09-29T04:49:57.943Z,2.53
2022-09-29T04:52:24.701Z,2.13
2022-09-29T04:54:51.961Z,2.37
2022-09-29T04:57:18.663Z,2.03
2022-09-29T04:59:46.397Z,2.43
2022-09-29T05:02:13.331Z,2.60
2022-09-29T05:04:40.204Z,2.70
2022-09-29T05:07:06.975Z,2.70
2022-09-29T05:09:34.886Z,2.23
2022-09-29T05:12:02.583Z,2.77
2022-09-29T05:14:29.415Z,2.30
2022-09-29T05:16:57.493Z,2.67
2022-09-29T05:19:24.415Z,2.23
2022-09-29T05:21:51.204Z,2.83
2022-09-29T05:24:18.197Z,2.80
2022-09-29T05:26:45.163Z,2.53
2022-09-29T05:29:11.972Z,3.40
2022-09-29T05:31:38.982Z,3.07
2022-09-29T05:34:05.828Z,3.07
2022-09-29T05:36:32.735Z,2.80
2022-09-29T05:38:59.839Z,3.23
2022-09-29T05:41:26.825Z,3.67
2022-09-29T05:43:55.109Z,3.40
2022-09-29T05:46:23.385Z,2.90
2022-09-29T05:48:53.792Z,2.33
2022-09-29T05:51:23.774Z,2.97
2022-09-29T05:53:52.160Z,3.03
2022-09-29T05:56:22.504Z,3.10
2022-09-29T05:58:49.773Z,2.87
2022-09-29T06:01:27.252Z,2.93
2022-09-29T06:03:55.231Z,2.97
2022-09-29T06:06:25.406Z,2.77
2022-09-29T06:08:53.069Z,2.97
2022-09-29T06:11:25.013Z,2.90
2022-09-29T06:13:53.510Z,2.77
2022-09-29T06:16:22.964Z,2.93
2022-09-29T06:18:50.418Z,2.83
2022-09-29T06:21:20.038Z,2.80
2022-09-29T06:23:47.593Z,2.90
2022-09-29T06:26:21.408Z,3.20
2022-09-29T06:28:50.708Z,3.37
2022-09-29T06:31:19.730Z,3.43
2022-09-29T06:33:46.777Z,4.50
2022-09-29T06:36:42.390Z,3.73
2022-09-29T06:39:12.264Z,2.90
2022-09-29T06:41:39.190Z,2.90
2022-09-29T06:44:09.362Z,3.10
2022-09-29T06:46:36.147Z,3.60
2022-09-29T06:49:02.963Z,3.13
2022-09-29T06:51:41.757Z,2.93
2022-09-29T06:54:24.648Z,2.80
2022-09-29T06:56:53.997Z,2.77
2022-09-29T06:59:21.098Z,3.20
2022-09-29T07:01:50.831Z,3.10
2022-09-29T07:04:22.294Z,3.07
2022-09-29T07:06:50.116Z,2.97
2022-09-29T07:09:17.597Z,2.67
2022-09-29T07:11:47.012Z,2.73
2022-09-29T07:14:14.974Z,2.97
2022-09-29T07:16:42.211Z,3.23
2022-09-29T07:19:10.125Z,3.20
2022-09-29T07:21:36.991Z,3.60
2022-09-29T07:24:03.872Z,4.30
2022-09-29T07:26:30.883Z,3.50
2022-09-29T07:28:58.275Z,3.93
2022-09-29T07:31:25.463Z,4.20
2022-09-29T07:33:53.188Z,4.40
2022-09-29T07:36:21.360Z,3.43
2022-09-29T07:38:49.923Z,4.43
2022-09-29T07:41:18.548Z,4.93
2022-09-29T07:43:45.747Z,5.30
2022-09-29T07:46:12.774Z,4.97
2022-09-29T07:48:40.209Z,5.47
2022-09-29T07:51:17.062Z,5.27
2022-09-29T07:53:44.243Z,5.90
2022-09-29T07:56:17.644Z,5.60
2022-09-29T07:58:46.103Z,5.40
2022-09-29T08:01:16.187Z,5.93
2022-09-29T08:03:54.563Z,6.00
2022-09-29T08:06:26.694Z,5.40
2022-09-29T08:09:03.752Z,5.80
2022-09-29T08:11:34.543Z,6.10
2022-09-29T08:14:02.264Z,6.37
2022-09-29T08:16:29.882Z,5.80
2022-09-29T08:18:56.917Z,8.60
2022-09-29T08:21:23.906Z,7.97
2022-09-29T08:23:50.711Z,7.07
2022-09-29T08:26:25.686Z,10.60
2022-09-29T08:29:07.855Z,5.77
2022-09-29T08:31:38.387Z,5.50
2022-09-29T08:34:06.797Z,5.87
2022-09-29T08:36:33.680Z,5.60
2022-09-29T08:39:00.866Z,6.03
2022-09-29T08:42:05.488Z,5.53
2022-09-29T08:44:52.174Z,6.13
2022-09-29T08:47:22.200Z,6.20
2022-09-29T08:49:57.425Z,5.87
2022-09-29T08:52:38.276Z,6.60
2022-09-29T08:55:21.037Z,6.20
2022-09-29T08:57:57.200Z,6.07
2022-09-29T09:00:38.999Z,6.03
2022-09-29T09:03:24.645Z,6.77
2022-09-29T09:05:51.613Z,5.80
2022-09-29T09:08:47.819Z,6.20
2022-09-29T09:11:34.047Z,5.90
2022-09-29T09:14:30.134Z,5.27
2022-09-29T09:17:22.385Z,5.30
2022-09-29T09:20:17.387Z,4.03
2022-09-29T09:23:07.497Z,3.97
2022-09-29T09:25:44.436Z,4.00
2022-09-29T09:28:20.444Z,5.00
2022-09-29T09:31:05.594Z,7.13
2022-09-29T09:34:04.206Z,5.07
2022-09-29T09:36:41.028Z,4.03
2022-09-29T09:39:27.187Z,3.93
2022-09-29T09:41:57.811Z,4.13
2022-09-29T09:44:34.811Z,4.30
2022-09-29T09:47:19.580Z,4.20
2022-09-29T09:49:53.329Z,4.47
2022-09-29T09:52:31.738Z,3.47
2022-09-29T09:55:01.557Z,2.70
2022-09-29T09:58:00.784Z,3.13
2022-09-29T10:00:35.898Z,2.30
2022-09-29T10:03:06.485Z,3.03
2022-09-29T10:05:45.603Z,2.70
2022-09-29T10:08:39.814Z,3.37
2022-09-29T10:11:32.109Z,2.80
2022-09-29T10:14:14.543Z,1.40
2022-09-29T10:16:49.043Z,1.30
2022-09-29T10:19:22.517Z,1.33
2022-09-29T10:21:50.210Z,1.50
2022-09-29T10:24:23.174Z,1.67
2022-09-29T10:26:53.292Z,4.33
2022-09-29T10:29:29.522Z,1.20
2022-09-29T10:32:02.779Z,2.80
2022-09-29T10:34:32.285Z,2.63
2022-09-29T10:37:01.855Z,1.20
2022-09-29T10:39:43.386Z,2.13
2022-09-29T10:42:40.296Z,2.10
2022-09-29T10:45:16.094Z,1.50
2022-09-29T10:47:46.490Z,1.40
2022-09-29T10:50:23.042Z,1.60
2022-09-29T10:52:58.224Z,1.37
2022-09-29T10:55:30.940Z,1.27
2022-09-29T10:58:01.890Z,0.70
2022-09-29T11:00:38.567Z,0.93
2022-09-29T11:03:21.142Z,1.10
2022-09-29T11:06:04.309Z,1.27
2022-09-29T11:08:32.034Z,1.13
2022-09-29T11:11:10.104Z,0.80
2022-09-29T11:13:41.075Z,1.30
2022-09-29T11:16:19.873Z,0.97
2022-09-29T11:18:49.459Z,0.60
2022-09-29T11:21:22.346Z,0.50
2022-09-29T11:23:55.888Z,3.40
2022-09-29T11:26:32.302Z,0.80
2022-09-29T11:29:14.682Z,0.47
2022-09-29T11:31:50.423Z,0.30
2022-09-29T11:34:46.759Z,0.50
2022-09-29T11:37:36.112Z,0.50
2022-09-29T11:40:47.301Z,0.90
2022-09-29T11:43:27.694Z,0.83
2022-09-29T11:45:57.283Z,0.90
2022-09-29T11:49:03.803Z,0.93
2022-09-29T11:51:40.875Z,1.20
2022-09-29T11:54:23.119Z,0.40
2022-09-29T11:57:19.647Z,0.50
2022-09-29T12:00:01.727Z,0.30
2022-09-29T12:02:49.856Z,0.30
2022-09-29T12:05:43.242Z,0.23
2022-09-29T12:08:23.322Z,0.20
2022-09-29T12:11:37.288Z,0.57
2022-09-29T12:14:08.750Z,0.40
2022-09-29T12:16:39.548Z,0.50
2022-09-29T12:19:16.498Z,0.80
2022-09-29T12:21:52.772Z,0.30
2022-09-29T12:24:34.255Z,0.30
2022-09-29T12:27:06.111Z,0.37
2022-09-29T12:29:33.050Z,0.33
2022-09-29T12:32:06.834Z,0.40
2022-09-29T12:34:45.694Z,0.50
2022-09-29T12:37:24.438Z,0.47
2022-09-29T12:40:17.098Z,0.30
2022-09-29T12:42:59.674Z,0.40
2022-09-29T12:45:35.309Z,0.50
2022-09-29T12:48:32.700Z,0.30
2022-09-29T12:51:23.957Z,0.30
2022-09-29T12:54:11.142Z,0.57
2022-09-29T12:56:45.797Z,0.30
2022-09-29T12:59:13.364Z,0.30
2022-09-29T13:01:40.637Z,0.40
2022-09-29T13:04:50.482Z,0.20
2022-09-29T13:07:23.641Z,0.20
2022-09-29T13:09:56.775Z,0.20
2022-09-29T13:12:46.451Z,0.50
2022-09-29T13:15:32.234Z,0.60
2022-09-29T13:18:05.288Z,0.90
2022-09-29T13:21:22.036Z,0.63
2022-09-29T13:24:15.649Z,0.17
2022-09-29T13:27:01.878Z,0.20
2022-09-29T13:29:32.419Z,0.40
2022-09-29T13:32:03.026Z,0.20
2022-09-29T13:34:36.944Z,0.23
2022-09-29T13:37:17.189Z,0.20
2022-09-29T13:40:11.307Z,0.33
2022-09-29T13:42:43.223Z,0.37
2022-09-29T13:45:29.161Z,0.20
2022-09-29T13:48:02.205Z,0.20
2022-09-29T13:50:45.096Z,0.70
2022-09-29T13:53:27.133Z,1.20
2022-09-29T13:56:02.990Z,1.67
2022-09-29T13:58:41.217Z,2.07
2022-09-29T14:01:10.810Z,1.30
2022-09-29T14:03:40.084Z,0.53
2022-09-29T14:06:40.658Z,0.30
2022-09-29T14:09:15.472Z,0.10
2022-09-29T14:11:48.126Z,0.10
2022-09-29T14:14:30.073Z,0.10
2022-09-29T14:17:12.301Z,0.10
2022-09-29T14:19:55.944Z,0.00
2022-09-29T14:22:32.445Z,0.30
2022-09-29T14:25:07.887Z,0.20
2022-09-29T14:28:04.045Z,0.10
2022-09-29T14:30:36.860Z,0.10
2022-09-29T14:33:21.940Z,0.20
2022-09-29T14:36:02.541Z,0.10
2022-09-29T14:38:37.715Z,0.10
2022-09-29T14:41:07.564Z,0.10
2022-09-29T14:43:43.613Z,0.10
2022-09-29T14:46:34.993Z,0.10
2022-09-29T14:49:43.994Z,0.03
2022-09-29T14:52:29.068Z,0.10
2022-09-29T14:54:59.158Z,0.00
2022-09-29T14:57:54.912Z,0.10
2022-09-29T15:00:38.068Z,0.10
2022-09-29T15:03:26.555Z,0.10
2022-09-29T15:06:28.118Z,0.20
2022-09-29T15:09:14.963Z,0.20
2022-09-29T15:11:49.996Z,0.20
2022-09-29T15:14:28.202Z,0.20
2022-09-29T15:17:22.723Z,0.40
2022-09-29T15:20:18.944Z,0.60
2022-09-29T15:22:52.633Z,0.33
2022-09-29T15:25:35.905Z,0.20
2022-09-29T15:28:15.085Z,0.10
2022-09-29T15:30:42.658Z,0.10
2022-09-29T15:33:20.576Z,0.13
2022-09-29T15:35:56.393Z,0.10
2022-09-29T15:38:23.593Z,0.10
2022-09-29T15:41:02.048Z,0.10
2022-09-29T15:43:40.022Z,0.10
2022-09-29T15:46:18.286Z,0.10
2022-09-29T15:49:12.789Z,0.10
2022-09-29T15:51:41.215Z,0.00
2022-09-29T15:54:11.684Z,0.10
2022-09-29T15:56:58.910Z,0.10
2022-09-29T15:59:51.739Z,0.30
2022-09-29T16:02:24.468Z,0.23
2022-09-29T16:04:55.055Z,0.23
2022-09-29T16:07:28.359Z,0.23
2022-09-29T16:10:01.771Z,0.30
2022-09-29T16:12:35.382Z,0.27
2022-09-29T16:15:02.350Z,0.33
2022-09-29T16:17:30.644Z,0.40
2022-09-29T16:20:00.715Z,0.40
2022-09-29T16:22:28.168Z,0.10
2022-09-29T16:25:26.218Z,0.30
2022-09-29T16:27:59.116Z,0.20
2022-09-29T16:30:28.823Z,0.30
2022-09-29T16:33:02.813Z,0.17
2022-09-29T16:35:45.190Z,0.10
2022-09-29T16:38:35.902Z,0.20
2022-09-29T16:41:15.124Z,0.23
2022-09-29T16:43:45.014Z,0.20
2022-09-29T16:46:18.456Z,0.33
2022-09-29T16:48:48.510Z,0.30
2022-09-29T16:51:38.102Z,0.27
2022-09-29T16:54:05.986Z,0.20
2022-09-29T16:56:35.548Z,0.10
2022-09-29T16:59:14.003Z,0.20
2022-09-29T17:01:41.841Z,0.10
2022-09-29T17:04:10.231Z,0.23
2022-09-29T17:06:37.662Z,0.13
2022-09-29T17:09:05.961Z,0.10
2022-09-29T17:11:33.055Z,0.10
2022-09-29T17:13:59.944Z,0.10
2022-09-29T17:16:28.822Z,0.10
2022-09-29T17:18:57.510Z,0.10
2022-09-29T17:21:24.508Z,0.10
2022-09-29T17:23:51.607Z,0.20
2022-09-29T17:26:47.539Z,0.10
2022-09-29T17:29:14.465Z,0.20
2022-09-29T17:31:41.532Z,0.00
2022-09-29T17:34:08.604Z,0.10
2022-09-29T17:36:37.327Z,0.20
2022-09-29T17:39:04.958Z,0.10
2022-09-29T17:41:32.159Z,0.10
2022-09-29T17:43:58.883Z,0.20
2022-09-29T17:46:25.879Z,0.20
2022-09-29T17:48:52.734Z,0.20
2022-09-29T17:51:21.436Z,0.30
2022-09-29T17:53:48.954Z,0.20
2022-09-29T17:56:22.400Z,0.17
2022-09-29T17:58:50.085Z,0.10
2022-09-29T18:01:22.128Z,0.10
2022-09-29T18:03:51.289Z,0.20
2022-09-29T18:06:25.107Z,0.20
2022-09-29T18:08:54.232Z,0.20
2022-09-29T18:11:23.033Z,0.27
2022-09-29T18:13:50.083Z,0.40
2022-09-29T18:16:23.032Z,0.40
2022-09-29T18:18:55.525Z,0.50
2022-09-29T18:21:25.071Z,0.77
2022-09-29T18:23:52.082Z,0.73
2022-09-29T18:26:18.973Z,0.70
2022-09-29T18:28:48.515Z,0.60
2022-09-29T18:31:29.163Z,0.57
2022-09-29T18:33:56.178Z,0.73
2022-09-29T18:36:23.151Z,1.00
2022-09-29T18:38:50.015Z,0.60
2022-09-29T18:41:23.464Z,0.50
2022-09-29T18:43:50.296Z,0.70
2022-09-29T18:46:17.589Z,0.50
2022-09-29T18:48:45.631Z,0.53
2022-09-29T18:51:13.484Z,0.60
2022-09-29T18:53:44.356Z,0.40
2022-09-29T18:56:17.005Z,0.70
2022-09-29T18:58:44.440Z,0.70
2022-09-29T19:01:18.857Z,0.93
2022-09-29T19:03:45.725Z,0.90
2022-09-29T19:06:16.070Z,0.80
2022-09-29T19:08:46.687Z,0.87
2022-09-29T19:11:17.997Z,0.90
2022-09-29T19:13:45.027Z,0.90
2022-09-29T19:16:12.069Z,1.00
2022-09-29T19:18:39.477Z,1.00
2022-09-29T19:21:10.660Z,0.87
2022-09-29T19:23:38.229Z,0.90
2022-09-29T19:26:10.813Z,1.20
2022-09-29T19:28:38.209Z,1.20
2022-09-29T19:31:11.529Z,1.10
2022-09-29T19:33:39.947Z,1.73
2022-09-29T19:36:10.457Z,1.83
2022-09-29T19:38:38.392Z,1.90
2022-09-29T19:41:11.307Z,2.37
2022-09-29T19:43:38.133Z,2.50
2022-09-29T19:46:10.124Z,1.17
2022-09-29T19:48:37.453Z,0.60
2022-09-29T19:51:24.252Z,0.57
2022-09-29T19:54:10.579Z,0.50
2022-09-29T19:56:48.564Z,0.50
2022-09-29T19:59:29.115Z,0.30
2022-09-29T20:01:56.554Z,0.60
2022-09-29T20:04:29.601Z,0.50
2022-09-29T20:06:58.422Z,0.50
2022-09-29T20:09:25.500Z,0.50
2022-09-29T20:11:53.188Z,0.50
2022-09-29T20:14:23.424Z,0.63
2022-09-29T20:16:52.367Z,0.70
2022-09-29T20:19:21.818Z,0.70
2022-09-29T20:21:51.543Z,0.70
2022-09-29T20:24:21.471Z,0.80
2022-09-29T20:26:48.719Z,0.90
2022-09-29T20:29:18.797Z,0.80
2022-09-29T20:31:48.047Z,0.67
2022-09-29T20:34:18.710Z,0.70
2022-09-29T20:36:48.704Z,0.70
2022-09-29T20:39:21.628Z,0.80
2022-09-29T20:41:50.425Z,0.83
2022-09-29T20:44:19.966Z,0.70
2022-09-29T20:46:47.288Z,0.70
2022-09-29T20:49:14.357Z,0.60
2022-09-29T20:51:41.218Z,0.80
2022-09-29T20:54:11.320Z,1.07
2022-09-29T20:56:44.268Z,0.90
2022-09-29T20:59:14.067Z,0.97
2022-09-29T21:01:41.588Z,0.97
2022-09-29T21:04:13.837Z,0.80
2022-09-29T21:06:43.124Z,0.80
2022-09-29T21:09:12.703Z,1.00
2022-09-29T21:11:41.368Z,0.70
2022-09-29T21:14:16.775Z,1.10
2022-09-29T21:16:45.344Z,1.00
2022-09-29T21:19:13.100Z,0.70
2022-09-29T21:21:41.127Z,0.67
2022-09-29T21:24:09.651Z,0.80
2022-09-29T21:26:37.028Z,0.67
2022-09-29T21:29:04.270Z,0.80
2022-09-29T21:31:34.354Z,0.50
2022-09-29T21:34:04.922Z,0.77
2022-09-29T21:36:33.796Z,0.60
2022-09-29T21:39:05.017Z,0.60
2022-09-29T21:41:41.052Z,0.70
2022-09-29T21:44:15.651Z,0.70
2022-09-29T21:46:43.500Z,0.63
2022-09-29T21:49:12.441Z,0.50
2022-09-29T21:51:43.136Z,0.70
2022-09-29T21:54:16.358Z,0.97
2022-09-29T21:56:44.989Z,0.80
2022-09-29T21:59:14.690Z,0.70
2022-09-29T22:01:42.473Z,0.90
2022-09-29T22:04:10.040Z,0.80
2022-09-29T22:06:38.390Z,0.70
2022-09-29T22:09:07.590Z,1.00
2022-09-29T22:11:38.287Z,1.00
2022-09-29T22:14:05.833Z,0.90
2022-09-29T22:16:34.559Z,0.80
2022-09-29T22:21:55.174Z,0.87
2022-09-29T22:24:24.273Z,0.60
2022-09-29T22:26:51.730Z,0.73
2022-09-29T22:29:19.375Z,0.67
2022-09-29T22:31:47.403Z,0.60
2022-09-29T22:34:14.427Z,0.60
2022-09-29T22:36:41.618Z,0.50
2022-09-29T22:39:08.562Z,0.60
2022-09-29T22:41:39.555Z,0.57
2022-09-29T22:44:07.849Z,0.47
2022-09-29T22:46:35.320Z,0.70
2022-09-29T22:49:02.448Z,0.43
2022-09-29T22:51:29.429Z,0.60
2022-09-29T22:53:56.423Z,0.40
2022-09-29T22:56:30.205Z,0.63
2022-09-29T22:59:04.705Z,0.50
2022-09-29T23:01:33.458Z,0.60
2022-09-29T23:04:00.908Z,0.50
2022-09-29T23:06:27.854Z,0.40
2022-09-29T23:08:55.635Z,0.70
2022-09-29T23:11:23.445Z,0.63
2022-09-29T23:13:51.758Z,0.50
2022-09-29T23:16:18.973Z,0.60
2022-09-29T23:18:47.294Z,0.50
2022-09-29T23:21:19.184Z,0.40
2022-09-29T23:23:47.734Z,0.30
2022-09-29T23:26:15.614Z,0.20
2022-09-29T23:28:42.676Z,0.30
2022-09-29T23:31:11.206Z,0.30
2022-09-29T23:33:38.218Z,0.40
2022-09-29T23:36:10.924Z,0.40
2022-09-29T23:38:57.430Z,0.40
2022-09-29T23:41:27.270Z,0.40
2022-09-29T23:43:55.685Z,0.50
2022-09-29T23:46:23.835Z,0.50
2022-09-29T23:48:50.985Z,0.40
2022-09-29T23:51:19.033Z,0.40
2022-09-29T23:53:45.939Z,0.50
2022-09-29T23:56:12.976Z,0.60
2022-09-29T23:58:39.956Z,0.70
